createdAt,value
2022-09-23T00:01:02.676Z,7.55
2022-09-23T00:03:31.417Z,6.78
2022-09-23T00:06:03.771Z,8.13
2022-09-23T00:08:30.960Z,6.72
2022-09-23T00:10:58.016Z,9.35
2022-09-23T00:13:25.445Z,8.52
2022-09-23T00:15:52.251Z,8.07
2022-09-23T00:18:20.552Z,7.68
2022-09-23T00:20:47.870Z,10.05
2022-09-23T00:23:14.737Z,6.72
2022-09-23T00:25:41.372Z,6.70
2022-09-23T00:28:08.151Z,8.20
2022-09-23T00:30:35.008Z,5.65
2022-09-23T00:33:01.675Z,10.98
2022-09-23T00:35:28.345Z,7.18
2022-09-23T00:37:54.915Z,7.80
2022-09-23T00:40:21.574Z,5.85
2022-09-23T00:42:51.163Z,8.30
2022-09-23T00:45:18.520Z,6.65
2022-09-23T00:47:52.597Z,8.05
2022-09-23T00:50:30.105Z,6.80
2022-09-23T00:53:00.569Z,5.35
2022-09-23T00:55:32.959Z,5.70
2022-09-23T00:58:02.701Z,7.00
2022-09-23T01:00:29.465Z,6.95
2022-09-23T01:02:56.137Z,6.90
2022-09-23T01:05:23.259Z,6.75
2022-09-23T01:07:50.754Z,8.18
2022-09-23T01:10:18.493Z,5.88
2022-09-23T01:12:48.152Z,6.18
2022-09-23T01:15:19.041Z,5.00
2022-09-23T01:18:02.569Z,5.63
2022-09-23T01:20:44.692Z,7.03
2022-09-23T01:23:16.680Z,6.57
2022-09-23T01:26:03.838Z,5.32
2022-09-23T01:29:12.422Z,5.93
2022-09-23T01:31:55.119Z,10.60
2022-09-23T01:34:30.654Z,5.13
2022-09-23T01:37:06.751Z,5.28
2022-09-23T01:40:03.459Z,7.45
2022-09-23T01:42:41.694Z,7.60
2022-09-23T01:45:14.921Z,5.15
2022-09-23T01:47:50.626Z,6.55
2022-09-23T01:50:38.981Z,5.50
2022-09-23T01:53:12.585Z,6.38
2022-09-23T01:55:43.417Z,7.70
2022-09-23T01:58:15.664Z,6.53
2022-09-23T02:00:51.022Z,5.60
2022-09-23T02:03:26.760Z,5.03
2022-09-23T02:06:22.797Z,11.13
2022-09-23T02:08:57.970Z,8.30
2022-09-23T02:11:24.955Z,6.00
2022-09-23T02:13:59.899Z,7.00
2022-09-23T02:16:39.462Z,8.05
2022-09-23T02:19:30.670Z,7.97
2022-09-23T02:22:15.057Z,10.52
2022-09-23T02:24:41.908Z,6.70
2022-09-23T02:27:32.407Z,8.05
2022-09-23T02:30:11.727Z,8.80
2022-09-23T02:33:05.135Z,6.85
2022-09-23T02:35:40.222Z,8.27
2022-09-23T02:38:29.421Z,6.13
2022-09-23T02:41:22.677Z,7.50
2022-09-23T02:43:59.747Z,6.93
2022-09-23T02:46:28.239Z,10.48
2022-09-23T02:49:29.225Z,9.20
2022-09-23T02:51:57.386Z,10.48
2022-09-23T02:54:29.215Z,7.97
2022-09-23T02:57:39.550Z,7.00
2022-09-23T03:00:06.918Z,7.07
2022-09-23T03:03:11.494Z,9.43
2022-09-23T03:05:46.774Z,9.85
2022-09-23T03:08:25.626Z,8.30
2022-09-23T03:11:11.163Z,7.90
2022-09-23T03:13:51.057Z,8.45
2022-09-23T03:16:47.666Z,9.00
2022-09-23T03:19:23.472Z,10.07
2022-09-23T03:21:52.841Z,8.05
2022-09-23T03:24:21.622Z,8.77
2022-09-23T03:26:49.801Z,8.25
2022-09-23T03:29:19.196Z,7.53
2022-09-23T03:31:46.016Z,10.55
2022-09-23T03:34:24.261Z,8.40
2022-09-23T03:37:02.819Z,9.52
2022-09-23T03:39:58.891Z,6.68
2022-09-23T03:42:30.007Z,7.95
2022-09-23T03:44:57.715Z,8.15
2022-09-23T03:47:26.748Z,10.38
2022-09-23T03:49:54.267Z,9.82
2022-09-23T03:52:22.972Z,7.32
2022-09-23T03:54:51.118Z,8.07
2022-09-23T03:57:18.654Z,7.75
2022-09-23T03:59:45.242Z,8.05
2022-09-23T04:02:11.986Z,8.00
2022-09-23T04:04:41.033Z,8.52
2022-09-23T04:07:08.260Z,7.40
2022-09-23T04:09:35.320Z,8.52
2022-09-23T04:12:03.582Z,10.13
2022-09-23T04:14:30.348Z,9.48
2022-09-23T04:16:57.031Z,10.88
2022-09-23T04:19:23.733Z,8.07
2022-09-23T04:25:58.775Z,6.53
2022-09-23T04:28:25.481Z,7.68
2022-09-23T04:30:52.301Z,10.23
2022-09-23T04:33:19.165Z,6.45
2022-09-23T04:35:53.070Z,7.50
2022-09-23T04:38:19.750Z,7.60
2022-09-23T04:40:46.745Z,8.38
2022-09-23T04:43:14.825Z,9.07
2022-09-23T04:45:42.803Z,8.18
2022-09-23T04:48:11.217Z,9.43
2022-09-23T04:50:38.443Z,7.25
2022-09-23T04:53:05.640Z,7.22
2022-09-23T04:55:32.611Z,7.60
2022-09-23T04:57:59.343Z,8.55
2022-09-23T05:00:26.984Z,7.63
2022-09-23T05:02:53.627Z,9.27
2022-09-23T05:05:21.132Z,7.93
2022-09-23T05:07:48.393Z,7.40
2022-09-23T05:10:15.710Z,8.25
2022-09-23T05:12:42.534Z,11.65
2022-09-23T05:15:09.622Z,9.43
2022-09-23T05:17:39.540Z,8.23
2022-09-23T05:20:06.808Z,8.10
2022-09-23T05:22:33.706Z,8.02
2022-09-23T05:25:01.546Z,7.75
2022-09-23T05:27:28.917Z,7.38
2022-09-23T05:29:55.726Z,7.57
2022-09-23T05:32:22.513Z,9.77
2022-09-23T05:34:49.115Z,12.18
2022-09-23T05:37:15.743Z,10.10
2022-09-23T05:39:42.387Z,12.75
2022-09-23T05:42:09.985Z,7.38
2022-09-23T05:44:39.245Z,9.88
2022-09-23T05:47:06.243Z,10.73
2022-09-23T05:49:55.121Z,9.10
2022-09-23T05:52:19.683Z,7.20
2022-09-23T05:54:46.333Z,9.05
2022-09-23T05:57:12.959Z,9.05
2022-09-23T05:59:39.718Z,9.57
2022-09-23T06:02:06.641Z,8.95
2022-09-23T06:04:33.422Z,7.57
2022-09-23T06:07:03.227Z,9.70
2022-09-23T06:09:35.605Z,10.90
2022-09-23T06:12:03.892Z,8.55
2022-09-23T06:14:30.577Z,8.20
2022-09-23T06:16:57.209Z,10.73
2022-09-23T06:19:23.842Z,10.90
2022-09-23T06:21:50.444Z,8.10
2022-09-23T06:24:21.255Z,7.63
2022-09-23T06:26:49.647Z,6.90
2022-09-23T06:29:18.041Z,7.68
2022-09-23T06:31:44.793Z,5.35
2022-09-23T06:34:16.234Z,9.23
2022-09-23T06:36:45.382Z,7.95
2022-09-23T06:39:16.286Z,8.95
2022-09-23T06:41:44.206Z,10.82
2022-09-23T06:44:11.055Z,12.23
2022-09-23T06:46:37.769Z,9.70
2022-09-23T06:49:04.460Z,9.20
2022-09-23T06:51:31.076Z,8.45
2022-09-23T06:53:57.842Z,11.45
2022-09-23T06:56:24.622Z,13.15
2022-09-23T06:58:54.716Z,9.48
2022-09-23T07:01:22.210Z,11.10
2022-09-23T07:03:48.929Z,7.80
2022-09-23T07:06:16.099Z,13.40
2022-09-23T07:08:44.782Z,11.55
2022-09-23T07:11:13.028Z,10.95
2022-09-23T07:13:41.884Z,9.35
2022-09-23T07:16:09.861Z,11.15
2022-09-23T07:18:37.546Z,13.98
2022-09-23T07:21:16.926Z,8.32
2022-09-23T07:23:50.112Z,10.25
2022-09-23T07:26:17.954Z,10.48
2022-09-23T07:28:45.437Z,9.50
2022-09-23T07:31:14.881Z,9.10
2022-09-23T07:33:43.895Z,8.60
2022-09-23T07:36:17.199Z,13.50
2022-09-23T07:38:45.779Z,12.52
2022-09-23T07:41:15.184Z,9.70
2022-09-23T07:43:41.906Z,8.82
2022-09-23T07:46:11.882Z,13.25
2022-09-23T07:48:39.250Z,15.07
2022-09-23T07:51:21.749Z,10.63
2022-09-23T07:53:51.112Z,10.85
2022-09-23T07:56:21.225Z,9.30
2022-09-23T07:58:59.963Z,10.23
2022-09-23T08:01:29.403Z,14.93
2022-09-23T08:03:58.011Z,7.75
2022-09-23T08:06:24.851Z,11.45
2022-09-23T08:08:53.423Z,9.77
2022-09-23T08:11:20.330Z,9.15
2022-09-23T08:13:47.713Z,10.75
2022-09-23T08:16:14.315Z,11.98
2022-09-23T08:18:44.558Z,9.07
2022-09-23T08:21:11.229Z,12.70
2022-09-23T08:23:37.874Z,8.02
2022-09-23T08:26:08.589Z,10.48
2022-09-23T08:28:41.070Z,12.88
2022-09-23T08:31:08.314Z,9.02
2022-09-23T08:33:34.977Z,11.00
2022-09-23T08:36:02.828Z,10.90
2022-09-23T08:38:30.133Z,8.23
2022-09-23T08:41:23.472Z,7.05
2022-09-23T08:43:56.230Z,8.30
2022-09-23T08:46:28.407Z,9.65
2022-09-23T08:48:56.054Z,11.70
2022-09-23T08:51:36.072Z,10.13
2022-09-23T08:54:02.900Z,10.30
2022-09-23T08:56:30.940Z,10.05
2022-09-23T08:59:05.491Z,6.32
2022-09-23T09:01:52.579Z,9.70
2022-09-23T09:04:37.685Z,15.15
2022-09-23T09:07:34.757Z,6.53
2022-09-23T09:10:03.361Z,11.18
2022-09-23T09:12:44.864Z,8.23
2022-09-23T09:15:13.252Z,7.95
2022-09-23T09:18:07.937Z,13.63
2022-09-23T09:20:45.298Z,9.60
2022-09-23T09:23:14.917Z,10.15
2022-09-23T09:25:50.654Z,12.60
2022-09-23T09:28:30.881Z,8.27
2022-09-23T09:31:01.224Z,8.93
2022-09-23T09:33:36.863Z,10.07
2022-09-23T09:36:08.830Z,7.10
2022-09-23T09:38:36.532Z,6.57
2022-09-23T09:41:15.863Z,8.65
2022-09-23T09:43:47.489Z,6.72
2022-09-23T09:46:41.677Z,7.68
2022-09-23T09:49:26.044Z,7.80
2022-09-23T09:52:22.443Z,8.30
2022-09-23T09:54:50.912Z,7.28
2022-09-23T09:57:33.567Z,6.57
2022-09-23T10:00:26.455Z,8.48
2022-09-23T10:02:55.477Z,8.10
2022-09-23T10:05:28.276Z,11.98
2022-09-23T10:07:55.182Z,7.50
2022-09-23T10:10:33.515Z,10.75
2022-09-23T10:13:15.198Z,6.38
2022-09-23T10:15:45.116Z,6.85
2022-09-23T10:18:19.809Z,7.60
2022-09-23T10:20:47.927Z,9.82
2022-09-23T10:23:20.996Z,9.10
2022-09-23T10:26:08.091Z,7.22
2022-09-23T10:28:48.428Z,10.23
2022-09-23T10:31:24.550Z,9.57
2022-09-23T10:33:55.481Z,8.82
2022-09-23T10:36:22.190Z,13.73
2022-09-23T10:39:23.802Z,8.57
2022-09-23T10:42:18.301Z,7.88
2022-09-23T10:45:27.742Z,7.45
2022-09-23T10:48:28.010Z,7.60
2022-09-23T10:50:55.906Z,6.65
2022-09-23T10:53:25.979Z,6.43
2022-09-23T10:56:23.704Z,8.15
2022-09-23T10:58:53.058Z,7.88
2022-09-23T11:01:31.636Z,9.48
2022-09-23T11:04:16.795Z,7.18
2022-09-23T11:07:08.073Z,7.43
2022-09-23T11:09:40.450Z,7.45
2022-09-23T11:12:20.573Z,9.88
2022-09-23T11:15:10.855Z,13.52
2022-09-23T11:18:03.377Z,6.82
2022-09-23T11:20:57.308Z,6.70
2022-09-23T11:23:23.903Z,6.20
2022-09-23T11:26:14.876Z,8.68
2022-09-23T11:29:00.396Z,11.35
2022-09-23T11:32:04.747Z,9.35
2022-09-23T11:34:54.837Z,6.97
2022-09-23T11:37:27.589Z,6.53
2022-09-23T11:40:34.360Z,6.30
2022-09-23T11:43:13.309Z,6.30
2022-09-23T11:45:46.130Z,7.15
2022-09-23T11:48:18.429Z,7.18
2022-09-23T11:50:56.029Z,7.45
2022-09-23T11:53:46.989Z,5.95
2022-09-23T11:56:32.304Z,6.57
2022-09-23T11:59:15.819Z,7.47
2022-09-23T12:01:55.050Z,8.60
2022-09-23T12:04:33.481Z,6.45
2022-09-23T12:07:09.155Z,6.05
2022-09-23T12:10:06.459Z,9.27
2022-09-23T12:12:42.687Z,5.20
2022-09-23T12:15:24.539Z,6.97
2022-09-23T12:18:17.498Z,7.15
2022-09-23T12:21:04.082Z,13.80
2022-09-23T12:23:30.628Z,7.65
2022-09-23T12:26:01.688Z,5.75
2022-09-23T12:28:31.239Z,11.30
2022-09-23T12:31:01.948Z,6.47
2022-09-23T12:33:32.344Z,8.95
2022-09-23T12:36:08.960Z,8.98
2022-09-23T12:38:51.907Z,8.65
2022-09-23T12:41:33.107Z,7.50
2022-09-23T12:44:15.449Z,7.18
2022-09-23T12:46:46.265Z,9.38
2022-09-23T12:49:27.019Z,7.10
2022-09-23T12:52:16.724Z,11.45
2022-09-23T12:54:45.900Z,11.55
2022-09-23T12:57:34.134Z,8.68
2022-09-23T13:00:07.064Z,5.80
2022-09-23T13:02:37.266Z,11.30
2022-09-23T13:05:40.241Z,6.90
2022-09-23T13:08:16.918Z,7.10
2022-09-23T13:10:49.613Z,5.13
2022-09-23T13:13:31.570Z,7.35
2022-09-23T13:16:19.758Z,9.80
2022-09-23T13:19:06.780Z,7.65
2022-09-23T13:21:42.354Z,5.47
2022-09-23T13:24:29.965Z,5.03
2022-09-23T13:27:00.136Z,6.32
2022-09-23T13:29:35.165Z,7.72
2022-09-23T13:32:02.577Z,6.40
2022-09-23T13:34:33.606Z,6.93
2022-09-23T13:37:22.787Z,5.22
2022-09-23T13:39:49.985Z,5.22
2022-09-23T13:42:28.997Z,7.43
2022-09-23T13:44:58.985Z,9.27
2022-09-23T13:47:28.471Z,9.35
2022-09-23T13:49:55.799Z,9.35
2022-09-23T13:52:26.965Z,7.00
2022-09-23T13:54:53.954Z,7.43
2022-09-23T13:57:33.744Z,7.78
2022-09-23T14:00:21.097Z,4.38
2022-09-23T14:02:47.843Z,6.05
2022-09-23T14:05:23.169Z,8.05
2022-09-23T14:07:51.250Z,7.95
2022-09-23T14:10:24.427Z,6.00
2022-09-23T14:12:52.675Z,6.93
2022-09-23T14:15:21.421Z,8.88
2022-09-23T14:17:51.326Z,7.05
2022-09-23T14:20:20.417Z,15.15
2022-09-23T14:22:47.006Z,7.88
2022-09-23T14:25:15.433Z,6.13
2022-09-23T14:27:43.459Z,8.93
2022-09-23T14:30:19.232Z,11.70
2022-09-23T14:32:47.871Z,6.35
2022-09-23T14:35:19.225Z,8.10
2022-09-23T14:38:06.439Z,7.32
2022-09-23T14:40:34.655Z,6.75
2022-09-23T14:43:23.229Z,5.88
2022-09-23T14:45:55.691Z,7.18
2022-09-23T14:48:33.910Z,6.40
2022-09-23T14:51:03.497Z,5.15
2022-09-23T14:53:42.414Z,5.85
2022-09-23T14:56:14.302Z,6.13
2022-09-23T14:58:49.469Z,9.63
2022-09-23T15:01:27.870Z,6.22
2022-09-23T15:03:56.139Z,7.07
2022-09-23T15:06:23.806Z,8.63
2022-09-23T15:08:52.608Z,11.27
2022-09-23T15:11:21.270Z,7.60
2022-09-23T15:13:51.067Z,10.88
2022-09-23T15:16:27.738Z,8.05
2022-09-23T15:18:57.577Z,10.05
2022-09-23T15:21:25.787Z,11.25
2022-09-23T15:23:55.039Z,9.02
2022-09-23T15:26:24.040Z,9.40
2022-09-23T15:28:54.020Z,7.10
2022-09-23T15:31:22.589Z,7.20
2022-09-23T15:33:50.637Z,8.43
2022-09-23T15:36:25.804Z,8.25
2022-09-23T15:38:53.037Z,6.95
2022-09-23T15:41:19.934Z,9.93
2022-09-23T15:43:47.174Z,7.95
2022-09-23T15:46:26.183Z,8.75
2022-09-23T15:49:10.208Z,10.70
2022-09-23T15:51:38.151Z,15.18
2022-09-23T15:54:11.804Z,10.77
2022-09-23T15:56:38.379Z,9.45
2022-09-23T15:59:05.054Z,6.68
2022-09-23T16:01:36.299Z,8.55
2022-09-23T16:04:04.422Z,11.18
2022-09-23T16:06:31.793Z,8.60
2022-09-23T16:08:58.473Z,11.30
2022-09-23T16:11:30.090Z,12.75
2022-09-23T16:13:56.846Z,11.82
2022-09-23T16:16:23.522Z,8.38
2022-09-23T16:18:53.457Z,15.50
2022-09-23T16:21:26.207Z,7.40
2022-09-23T16:23:54.394Z,11.70
2022-09-23T16:26:26.943Z,11.27
2022-09-23T16:28:55.855Z,11.27
2022-09-23T16:31:25.223Z,13.73
2022-09-23T16:33:53.406Z,10.43
2022-09-23T16:36:39.568Z,10.90
2022-09-23T16:39:10.160Z,15.77
2022-09-23T16:41:37.032Z,13.38
2022-09-23T16:44:06.273Z,14.60
2022-09-23T16:46:34.245Z,11.43
2022-09-23T16:49:00.941Z,12.57
2022-09-23T16:51:38.259Z,9.77
2022-09-23T16:54:10.892Z,9.18
2022-09-23T16:56:45.006Z,12.73
2022-09-23T16:59:13.229Z,10.40
2022-09-23T17:01:58.420Z,11.73
2022-09-23T17:04:25.028Z,12.98
2022-09-23T17:06:52.812Z,14.57
2022-09-23T17:09:21.371Z,11.75
2022-09-23T17:12:04.210Z,9.10
2022-09-23T17:14:31.490Z,7.93
2022-09-23T17:16:58.784Z,14.43
2022-09-23T17:19:25.476Z,12.10
2022-09-23T17:21:53.493Z,17.13
2022-09-23T17:24:20.206Z,10.52
2022-09-23T17:26:50.688Z,13.10
2022-09-23T17:29:18.713Z,16.98
2022-09-23T17:31:46.458Z,18.73
2022-09-23T17:34:13.260Z,20.48
2022-09-23T17:36:40.288Z,7.75
2022-09-23T17:39:07.001Z,14.98
2022-09-23T17:41:33.715Z,12.65
2022-09-23T17:44:00.565Z,11.88
2022-09-23T17:46:30.856Z,10.05
2022-09-23T17:48:58.100Z,11.73
2022-09-23T17:51:25.545Z,11.85
2022-09-23T17:53:52.235Z,12.88
2022-09-23T17:56:26.490Z,8.23
2022-09-23T17:58:54.050Z,7.22
2022-09-23T18:01:23.511Z,8.60
2022-09-23T18:03:58.345Z,9.95
2022-09-23T18:06:27.748Z,9.73
2022-09-23T18:08:56.000Z,12.15
2022-09-23T18:11:30.472Z,9.45
2022-09-23T18:13:59.606Z,8.57
2022-09-23T18:16:29.278Z,9.40
2022-09-23T18:19:00.861Z,15.82
2022-09-23T18:21:35.158Z,11.15
2022-09-23T18:24:21.699Z,14.30
2022-09-23T18:26:50.212Z,10.75
2022-09-23T18:29:17.193Z,8.77
2022-09-23T18:31:45.078Z,10.05
2022-09-23T18:34:13.827Z,13.25
2022-09-23T18:36:40.546Z,10.90
2022-09-23T18:39:07.470Z,12.15
2022-09-23T18:41:34.995Z,9.88
2022-09-23T18:44:01.806Z,8.90
2022-09-23T18:46:29.921Z,10.23
2022-09-23T18:49:16.225Z,13.15
2022-09-23T18:51:57.160Z,12.15
2022-09-23T18:54:26.058Z,9.13
2022-09-23T18:56:53.025Z,9.30
2022-09-23T18:59:23.664Z,10.45
2022-09-23T19:01:50.846Z,12.77
2022-09-23T19:04:20.038Z,14.48
2022-09-23T19:06:47.212Z,12.90
2022-09-23T19:09:15.286Z,11.00
2022-09-23T19:11:42.275Z,10.10
2022-09-23T19:14:11.421Z,9.27
2022-09-23T19:16:39.646Z,12.40
2022-09-23T19:19:06.602Z,15.63
2022-09-23T19:21:33.479Z,13.07
2022-09-23T19:24:03.697Z,14.55
2022-09-23T19:26:34.259Z,10.80
2022-09-23T19:29:03.094Z,14.18
2022-09-23T19:31:33.316Z,11.98
2022-09-23T19:34:10.564Z,9.93
2022-09-23T19:36:39.358Z,12.85
2022-09-23T19:39:08.656Z,12.23
2022-09-23T19:41:35.588Z,9.57
2022-09-23T19:44:03.183Z,10.02
2022-09-23T19:46:30.951Z,10.57
2022-09-23T19:48:58.467Z,8.77
2022-09-23T19:51:25.374Z,8.88
2022-09-23T19:53:52.291Z,20.60
2022-09-23T19:56:19.765Z,16.63
2022-09-23T19:58:48.228Z,15.05
2022-09-23T20:01:16.234Z,12.55
2022-09-23T20:03:46.961Z,13.25
2022-09-23T20:06:14.574Z,10.63
2022-09-23T20:08:41.857Z,9.50
2022-09-23T20:11:11.495Z,8.95
2022-09-23T20:13:41.290Z,10.07
2022-09-23T20:16:11.304Z,9.80
2022-09-23T20:18:38.929Z,10.90
2022-09-23T20:21:07.270Z,11.57
2022-09-23T20:23:34.379Z,12.18
2022-09-23T20:26:21.135Z,12.45
2022-09-23T20:28:48.053Z,11.57
2022-09-23T20:31:16.267Z,12.63
2022-09-23T20:33:43.302Z,15.07
2022-09-23T20:36:13.211Z,9.38
2022-09-23T20:38:40.504Z,16.70
2022-09-23T20:41:08.143Z,14.82
2022-09-23T20:43:35.322Z,16.00
2022-09-23T20:46:03.482Z,11.73
2022-09-23T20:48:30.827Z,14.32
2022-09-23T20:51:05.294Z,13.70
2022-09-23T20:53:32.581Z,11.00
2022-09-23T20:55:59.697Z,14.13
2022-09-23T20:58:29.125Z,11.90
2022-09-23T21:01:22.390Z,15.05
2022-09-23T21:03:52.218Z,9.75
2022-09-23T21:06:19.527Z,11.45
2022-09-23T21:08:46.525Z,14.57
2022-09-23T21:11:16.364Z,13.60
2022-09-23T21:13:51.266Z,16.50
2022-09-23T21:16:22.344Z,17.23
2022-09-23T21:18:50.359Z,12.77
2022-09-23T21:21:19.503Z,18.65
2022-09-23T21:23:47.502Z,15.98
2022-09-23T21:26:19.172Z,16.27
2022-09-23T21:28:48.661Z,16.98
2022-09-23T21:31:24.114Z,15.75
2022-09-23T21:33:56.465Z,16.05
2022-09-23T21:36:24.470Z,16.55
2022-09-23T21:38:52.034Z,15.00
2022-09-23T21:41:19.125Z,14.82
2022-09-23T21:43:45.875Z,14.52
2022-09-23T21:46:14.670Z,18.33
2022-09-23T21:48:42.293Z,16.77
2022-09-23T21:51:11.934Z,15.50
2022-09-23T21:53:39.582Z,15.38
2022-09-23T21:56:21.226Z,15.30
2022-09-23T21:58:48.486Z,13.48
2022-09-23T22:01:22.211Z,14.60
2022-09-23T22:03:51.420Z,15.07
2022-09-23T22:06:21.356Z,14.88
2022-09-23T22:08:51.207Z,13.90
2022-09-23T22:11:39.039Z,15.68
2022-09-23T22:14:07.697Z,14.43
2022-09-23T22:16:35.817Z,14.50
2022-09-23T22:19:06.810Z,14.63
2022-09-23T22:21:36.488Z,17.58
2022-09-23T22:24:04.962Z,14.95
2022-09-23T22:26:38.289Z,17.95
2022-09-23T22:29:25.788Z,16.65
2022-09-23T22:32:11.110Z,16.75
2022-09-23T22:34:55.644Z,15.82
2022-09-23T22:37:26.988Z,15.00
2022-09-23T22:39:54.148Z,13.15
2022-09-23T22:42:22.169Z,14.82
2022-09-23T22:44:49.592Z,15.32
2022-09-23T22:47:17.831Z,15.52
2022-09-23T22:49:45.480Z,15.88
2022-09-23T22:52:12.513Z,16.67
2022-09-23T22:54:39.162Z,15.05
2022-09-23T22:57:07.492Z,15.30
2022-09-23T22:59:34.742Z,14.25
2022-09-23T23:02:05.179Z,19.02
2022-09-23T23:04:31.909Z,14.48
2022-09-23T23:06:58.729Z,15.07
2022-09-23T23:09:25.567Z,15.93
2022-09-23T23:11:52.221Z,16.10
2022-09-23T23:14:19.202Z,15.40
2022-09-23T23:16:46.440Z,12.90
2022-09-23T23:19:16.822Z,12.25
2022-09-23T23:21:44.756Z,12.20
2022-09-23T23:24:22.862Z,12.90
2022-09-23T23:26:50.791Z,11.43
2022-09-23T23:29:19.238Z,13.02
2022-09-23T23:31:46.297Z,15.32
2022-09-23T23:34:20.902Z,14.73
2022-09-23T23:36:53.386Z,15.10
2022-09-23T23:39:21.035Z,14.45
2022-09-23T23:41:49.091Z,15.02
2022-09-23T23:44:15.805Z,18.10
2022-09-23T23:46:42.460Z,15.93
2022-09-23T23:49:09.164Z,18.85
2022-09-23T23:51:35.780Z,16.70
2022-09-23T23:54:02.421Z,15.70
2022-09-23T23:56:30.726Z,16.20
2022-09-23T23:59:02.456Z,14.63
